sensor_id;sensor_type;location;lat;lon;timestamp;P1;durP1;ratioP1;P2;durP2;ratioP2
9467;SDS011;4772;52.382;9.752;2022-08-21T00:01:58;6.53;;;1.87;;
9467;SDS011;4772;52.382;9.752;2022-08-21T00:04:24;4.63;;;2.40;;
9467;SDS011;4772;52.382;9.752;2022-08-21T00:06:51;3.80;;;1.90;;
9467;SDS011;4772;52.382;9.752;2022-08-21T00:09:17;7.03;;;1.90;;
9467;SDS011;4772;52.382;9.752;2022-08-21T00:11:43;6.57;;;2.40;;
9467;SDS011;4772;52.382;9.752;2022-08-21T00:14:10;6.33;;;2.20;;
9467;SDS011;4772;52.382;9.752;2022-08-21T00:16:37;4.67;;;2.00;;
9467;SDS011;4772;52.382;9.752;2022-08-21T00:19:03;6.53;;;2.37;;
9467;SDS011;4772;52.382;9.752;2022-08-21T00:21:30;6.17;;;2.30;;
9467;SDS011;4772;52.382;9.752;2022-08-21T00:23:56;5.00;;;2.17;;
9467;SDS011;4772;52.382;9.752;2022-08-21T00:26:22;2.80;;;2.10;;
9467;SDS011;4772;52.382;9.752;2022-08-21T00:28:48;4.87;;;2.00;;
9467;SDS011;4772;52.382;9.752;2022-08-21T00:31:15;4.40;;;2.10;;
9467;SDS011;4772;52.382;9.752;2022-08-21T00:33:41;4.97;;;2.43;;
9467;SDS011;4772;52.382;9.752;2022-08-21T00:36:08;3.03;;;2.07;;
9467;SDS011;4772;52.382;9.752;2022-08-21T00:38:35;4.07;;;2.30;;
9467;SDS011;4772;52.382;9.752;2022-08-21T00:41:04;5.40;;;2.10;;
9467;SDS011;4772;52.382;9.752;2022-08-21T00:43:32;4.60;;;2.20;;
9467;SDS011;4772;52.382;9.752;2022-08-21T00:45:58;5.77;;;2.10;;
9467;SDS011;4772;52.382;9.752;2022-08-21T00:48:25;4.03;;;2.07;;
9467;SDS011;4772;52.382;9.752;2022-08-21T00:51:04;6.30;;;2.37;;
9467;SDS011;4772;52.382;9.752;2022-08-21T00:53:31;3.57;;;2.23;;
9467;SDS011;4772;52.382;9.752;2022-08-21T00:55:57;4.30;;;2.17;;
9467;SDS011;4772;52.382;9.752;2022-08-21T00:58:24;3.13;;;2.60;;
9467;SDS011;4772;52.382;9.752;2022-08-21T01:00:52;4.17;;;2.17;;
9467;SDS011;4772;52.382;9.752;2022-08-21T01:03:21;4.73;;;2.50;;
9467;SDS011;4772;52.382;9.752;2022-08-21T01:05:47;5.67;;;2.50;;
9467;SDS011;4772;52.382;9.752;2022-08-21T01:08:14;3.40;;;2.17;;
9467;SDS011;4772;52.382;9.752;2022-08-21T01:10:41;5.17;;;2.20;;
9467;SDS011;4772;52.382;9.752;2022-08-21T01:13:08;7.20;;;2.40;;
9467;SDS011;4772;52.382;9.752;2022-08-21T01:15:36;5.07;;;2.27;;
9467;SDS011;4772;52.382;9.752;2022-08-21T01:18:03;4.00;;;1.80;;
9467;SDS011;4772;52.382;9.752;2022-08-21T01:20:30;4.80;;;2.33;;
9467;SDS011;4772;52.382;9.752;2022-08-21T01:22:56;6.20;;;2.40;;
9467;SDS011;4772;52.382;9.752;2022-08-21T01:25:22;4.90;;;2.10;;
9467;SDS011;4772;52.382;9.752;2022-08-21T01:27:49;5.43;;;2.30;;
9467;SDS011;4772;52.382;9.752;2022-08-21T01:30:16;9.50;;;2.23;;
9467;SDS011;4772;52.382;9.752;2022-08-21T01:32:44;4.90;;;2.40;;
9467;SDS011;4772;52.382;9.752;2022-08-21T01:35:11;3.77;;;2.03;;
9467;SDS011;4772;52.382;9.752;2022-08-21T01:37:37;7.97;;;2.50;;
9467;SDS011;4772;52.382;9.752;2022-08-21T01:40:04;6.37;;;2.50;;
9467;SDS011;4772;52.382;9.752;2022-08-21T01:42:31;4.97;;;2.27;;
9467;SDS011;4772;52.382;9.752;2022-08-21T01:44:57;5.57;;;2.20;;
9467;SDS011;4772;52.382;9.752;2022-08-21T01:47:23;6.67;;;2.30;;
9467;SDS011;4772;52.382;9.752;2022-08-21T01:49:49;6.50;;;2.07;;
9467;SDS011;4772;52.382;9.752;2022-08-21T01:52:15;5.60;;;2.43;;
9467;SDS011;4772;52.382;9.752;2022-08-21T01:54:41;6.57;;;2.30;;
9467;SDS011;4772;52.382;9.752;2022-08-21T01:57:08;6.27;;;2.50;;
9467;SDS011;4772;52.382;9.752;2022-08-21T01:59:34;6.07;;;2.00;;
9467;SDS011;4772;52.382;9.752;2022-08-21T02:02:00;5.63;;;2.50;;
9467;SDS011;4772;52.382;9.752;2022-08-21T02:04:26;3.37;;;2.30;;
9467;SDS011;4772;52.382;9.752;2022-08-21T02:06:52;7.10;;;2.90;;
9467;SDS011;4772;52.382;9.752;2022-08-21T02:09:18;5.03;;;2.63;;
9467;SDS011;4772;52.382;9.752;2022-08-21T02:11:46;2.83;;;2.17;;
9467;SDS011;4772;52.382;9.752;2022-08-21T02:14:13;5.83;;;2.60;;
9467;SDS011;4772;52.382;9.752;2022-08-21T02:16:39;4.23;;;2.20;;
9467;SDS011;4772;52.382;9.752;2022-08-21T02:19:06;4.77;;;2.40;;
9467;SDS011;4772;52.382;9.752;2022-08-21T02:21:32;4.70;;;2.47;;
9467;SDS011;4772;52.382;9.752;2022-08-21T02:23:58;6.80;;;2.60;;
9467;SDS011;4772;52.382;9.752;2022-08-21T02:26:24;4.13;;;2.20;;
9467;SDS011;4772;52.382;9.752;2022-08-21T02:28:50;5.30;;;2.50;;
9467;SDS011;4772;52.382;9.752;2022-08-21T02:31:16;4.80;;;2.50;;
9467;SDS011;4772;52.382;9.752;2022-08-21T02:33:43;6.87;;;2.90;;
9467;SDS011;4772;52.382;9.752;2022-08-21T02:36:09;6.67;;;2.43;;
9467;SDS011;4772;52.382;9.752;2022-08-21T02:38:37;6.30;;;2.70;;
9467;SDS011;4772;52.382;9.752;2022-08-21T02:41:05;6.83;;;2.73;;
9467;SDS011;4772;52.382;9.752;2022-08-21T02:43:32;3.47;;;2.30;;
9467;SDS011;4772;52.382;9.752;2022-08-21T02:45:58;6.37;;;2.40;;
9467;SDS011;4772;52.382;9.752;2022-08-21T02:48:25;5.20;;;2.63;;
9467;SDS011;4772;52.382;9.752;2022-08-21T02:50:53;6.43;;;2.63;;
9467;SDS011;4772;52.382;9.752;2022-08-21T02:53:19;5.03;;;2.70;;
9467;SDS011;4772;52.382;9.752;2022-08-21T02:55:46;6.43;;;2.50;;
9467;SDS011;4772;52.382;9.752;2022-08-21T02:58:13;5.00;;;2.43;;
9467;SDS011;4772;52.382;9.752;2022-08-21T03:00:40;4.73;;;2.60;;
9467;SDS011;4772;52.382;9.752;2022-08-21T03:03:06;5.33;;;2.20;;
9467;SDS011;4772;52.382;9.752;2022-08-21T03:05:34;5.67;;;2.30;;
9467;SDS011;4772;52.382;9.752;2022-08-21T03:08:03;4.10;;;2.70;;
9467;SDS011;4772;52.382;9.752;2022-08-21T03:10:29;5.23;;;2.40;;
9467;SDS011;4772;52.382;9.752;2022-08-21T03:12:56;8.53;;;2.57;;
9467;SDS011;4772;52.382;9.752;2022-08-21T03:15:22;4.87;;;2.70;;
9467;SDS011;4772;52.382;9.752;2022-08-21T03:17:48;4.07;;;2.23;;
9467;SDS011;4772;52.382;9.752;2022-08-21T03:20:16;5.03;;;2.40;;
9467;SDS011;4772;52.382;9.752;2022-08-21T03:22:42;4.13;;;2.40;;
9467;SDS011;4772;52.382;9.752;2022-08-21T03:25:08;4.97;;;2.53;;
9467;SDS011;4772;52.382;9.752;2022-08-21T03:27:35;4.07;;;2.57;;
9467;SDS011;4772;52.382;9.752;2022-08-21T03:30:03;6.40;;;2.60;;
9467;SDS011;4772;52.382;9.752;2022-08-21T03:32:29;5.60;;;2.63;;
9467;SDS011;4772;52.382;9.752;2022-08-21T03:34:56;4.77;;;2.60;;
9467;SDS011;4772;52.382;9.752;2022-08-21T03:37:22;4.17;;;2.80;;
9467;SDS011;4772;52.382;9.752;2022-08-21T03:39:49;4.83;;;2.47;;
9467;SDS011;4772;52.382;9.752;2022-08-21T03:42:15;5.93;;;2.50;;
9467;SDS011;4772;52.382;9.752;2022-08-21T03:44:41;4.70;;;2.50;;
9467;SDS011;4772;52.382;9.752;2022-08-21T03:47:07;7.67;;;3.17;;
9467;SDS011;4772;52.382;9.752;2022-08-21T03:49:34;6.50;;;3.10;;
9467;SDS011;4772;52.382;9.752;2022-08-21T03:52:01;4.77;;;2.90;;
9467;SDS011;4772;52.382;9.752;2022-08-21T03:54:27;6.43;;;3.17;;
9467;SDS011;4772;52.382;9.752;2022-08-21T03:56:53;6.13;;;3.30;;
9467;SDS011;4772;52.382;9.752;2022-08-21T03:59:19;6.77;;;2.87;;
9467;SDS011;4772;52.382;9.752;2022-08-21T04:01:52;7.47;;;3.20;;
9467;SDS011;4772;52.382;9.752;2022-08-21T04:04:19;5.10;;;2.80;;
9467;SDS011;4772;52.382;9.752;2022-08-21T04:06:45;7.57;;;3.57;;
9467;SDS011;4772;52.382;9.752;2022-08-21T04:09:11;5.67;;;3.20;;
9467;SDS011;4772;52.382;9.752;2022-08-21T04:11:37;7.03;;;3.23;;
9467;SDS011;4772;52.382;9.752;2022-08-21T04:14:03;6.60;;;3.23;;
9467;SDS011;4772;52.382;9.752;2022-08-21T04:16:29;6.03;;;3.07;;
9467;SDS011;4772;52.382;9.752;2022-08-21T04:18:56;7.53;;;3.20;;
9467;SDS011;4772;52.382;9.752;2022-08-21T04:21:22;4.53;;;2.73;;
9467;SDS011;4772;52.382;9.752;2022-08-21T04:23:48;5.33;;;2.83;;
9467;SDS011;4772;52.382;9.752;2022-08-21T04:26:14;5.47;;;2.83;;
9467;SDS011;4772;52.382;9.752;2022-08-21T04:28:40;8.67;;;3.47;;
9467;SDS011;4772;52.382;9.752;2022-08-21T04:31:07;7.40;;;3.40;;
9467;SDS011;4772;52.382;9.752;2022-08-21T04:33:33;7.87;;;3.80;;
9467;SDS011;4772;52.382;9.752;2022-08-21T04:35:59;5.87;;;3.27;;
9467;SDS011;4772;52.382;9.752;2022-08-21T04:38:25;5.90;;;3.23;;
9467;SDS011;4772;52.382;9.752;2022-08-21T04:40:51;6.70;;;3.10;;
9467;SDS011;4772;52.382;9.752;2022-08-21T04:43:18;6.33;;;3.27;;
9467;SDS011;4772;52.382;9.752;2022-08-21T04:45:46;8.23;;;3.27;;
9467;SDS011;4772;52.382;9.752;2022-08-21T04:48:14;6.43;;;3.00;;
9467;SDS011;4772;52.382;9.752;2022-08-21T04:50:49;9.33;;;3.23;;
9467;SDS011;4772;52.382;9.752;2022-08-21T04:53:23;5.90;;;2.83;;
9467;SDS011;4772;52.382;9.752;2022-08-21T04:55:50;6.93;;;3.00;;
9467;SDS011;4772;52.382;9.752;2022-08-21T04:58:18;5.87;;;2.93;;
9467;SDS011;4772;52.382;9.752;2022-08-21T05:00:44;4.90;;;2.70;;
9467;SDS011;4772;52.382;9.752;2022-08-21T05:03:11;6.03;;;3.47;;
9467;SDS011;4772;52.382;9.752;2022-08-21T05:05:38;5.53;;;2.90;;
9467;SDS011;4772;52.382;9.752;2022-08-21T05:08:04;6.50;;;2.90;;
9467;SDS011;4772;52.382;9.752;2022-08-21T05:10:32;6.13;;;3.00;;
9467;SDS011;4772;52.382;9.752;2022-08-21T05:12:58;7.00;;;3.00;;
9467;SDS011;4772;52.382;9.752;2022-08-21T05:15:26;6.40;;;2.90;;
9467;SDS011;4772;52.382;9.752;2022-08-21T05:17:52;8.40;;;2.93;;
9467;SDS011;4772;52.382;9.752;2022-08-21T05:20:18;4.73;;;2.60;;
9467;SDS011;4772;52.382;9.752;2022-08-21T05:22:44;5.63;;;3.00;;
9467;SDS011;4772;52.382;9.752;2022-08-21T05:25:10;9.07;;;3.33;;
9467;SDS011;4772;52.382;9.752;2022-08-21T05:27:37;6.37;;;2.90;;
9467;SDS011;4772;52.382;9.752;2022-08-21T05:30:04;6.03;;;2.70;;
9467;SDS011;4772;52.382;9.752;2022-08-21T05:32:30;4.20;;;2.80;;
9467;SDS011;4772;52.382;9.752;2022-08-21T05:34:56;5.97;;;3.10;;
9467;SDS011;4772;52.382;9.752;2022-08-21T05:37:22;9.63;;;2.97;;
9467;SDS011;4772;52.382;9.752;2022-08-21T05:39:48;8.20;;;2.70;;
9467;SDS011;4772;52.382;9.752;2022-08-21T05:42:14;7.20;;;2.57;;
9467;SDS011;4772;52.382;9.752;2022-08-21T05:44:40;5.80;;;2.70;;
9467;SDS011;4772;52.382;9.752;2022-08-21T05:47:07;4.00;;;2.53;;
9467;SDS011;4772;52.382;9.752;2022-08-21T05:49:33;7.77;;;2.80;;
9467;SDS011;4772;52.382;9.752;2022-08-21T05:51:59;5.50;;;2.43;;
9467;SDS011;4772;52.382;9.752;2022-08-21T05:54:26;6.17;;;2.77;;
9467;SDS011;4772;52.382;9.752;2022-08-21T05:56:52;4.17;;;2.67;;
9467;SDS011;4772;52.382;9.752;2022-08-21T05:59:18;4.43;;;2.47;;
9467;SDS011;4772;52.382;9.752;2022-08-21T06:01:44;5.20;;;2.70;;
9467;SDS011;4772;52.382;9.752;2022-08-21T06:04:11;6.83;;;3.00;;
9467;SDS011;4772;52.382;9.752;2022-08-21T06:06:37;5.70;;;2.80;;
9467;SDS011;4772;52.382;9.752;2022-08-21T06:09:04;8.23;;;2.80;;
9467;SDS011;4772;52.382;9.752;2022-08-21T06:11:30;7.37;;;2.70;;
9467;SDS011;4772;52.382;9.752;2022-08-21T06:13:57;6.63;;;2.80;;
9467;SDS011;4772;52.382;9.752;2022-08-21T06:16:23;7.30;;;2.87;;
9467;SDS011;4772;52.382;9.752;2022-08-21T06:18:49;4.60;;;2.73;;
9467;SDS011;4772;52.382;9.752;2022-08-21T06:21:15;7.80;;;2.60;;
9467;SDS011;4772;52.382;9.752;2022-08-21T06:23:41;6.50;;;2.57;;
9467;SDS011;4772;52.382;9.752;2022-08-21T06:26:08;4.03;;;2.23;;
9467;SDS011;4772;52.382;9.752;2022-08-21T06:28:37;5.80;;;2.93;;
9467;SDS011;4772;52.382;9.752;2022-08-21T06:31:36;5.33;;;2.77;;
9467;SDS011;4772;52.382;9.752;2022-08-21T06:33:55;5.83;;;2.80;;
9467;SDS011;4772;52.382;9.752;2022-08-21T06:36:22;6.93;;;3.20;;
9467;SDS011;4772;52.382;9.752;2022-08-21T06:38:48;5.60;;;2.83;;
9467;SDS011;4772;52.382;9.752;2022-08-21T06:41:14;5.67;;;2.87;;
9467;SDS011;4772;52.382;9.752;2022-08-21T06:43:40;6.07;;;3.00;;
9467;SDS011;4772;52.382;9.752;2022-08-21T06:46:07;7.70;;;2.90;;
9467;SDS011;4772;52.382;9.752;2022-08-21T06:48:33;4.97;;;2.40;;
9467;SDS011;4772;52.382;9.752;2022-08-21T06:51:00;6.47;;;2.70;;
9467;SDS011;4772;52.382;9.752;2022-08-21T06:53:29;4.97;;;2.60;;
9467;SDS011;4772;52.382;9.752;2022-08-21T06:55:55;6.70;;;3.00;;
9467;SDS011;4772;52.382;9.752;2022-08-21T06:58:21;3.20;;;2.30;;
9467;SDS011;4772;52.382;9.752;2022-08-21T07:00:48;7.10;;;2.83;;
9467;SDS011;4772;52.382;9.752;2022-08-21T07:03:30;4.73;;;2.50;;
9467;SDS011;4772;52.382;9.752;2022-08-21T07:05:56;6.18;;;2.92;;
9467;SDS011;4772;52.382;9.752;2022-08-21T07:08:23;5.35;;;2.55;;
9467;SDS011;4772;52.382;9.752;2022-08-21T07:10:49;6.80;;;2.90;;
9467;SDS011;4772;52.382;9.752;2022-08-21T07:13:16;7.60;;;3.15;;
9467;SDS011;4772;52.382;9.752;2022-08-21T07:15:42;5.50;;;3.08;;
9467;SDS011;4772;52.382;9.752;2022-08-21T07:18:08;5.88;;;2.80;;
9467;SDS011;4772;52.382;9.752;2022-08-21T07:20:34;6.25;;;2.75;;
9467;SDS011;4772;52.382;9.752;2022-08-21T07:23:02;7.13;;;3.00;;
9467;SDS011;4772;52.382;9.752;2022-08-21T07:25:28;7.70;;;2.88;;
9467;SDS011;4772;52.382;9.752;2022-08-21T07:27:55;5.93;;;2.95;;
9467;SDS011;4772;52.382;9.752;2022-08-21T07:30:21;5.40;;;2.60;;
9467;SDS011;4772;52.382;9.752;2022-08-21T07:32:47;6.18;;;3.03;;
9467;SDS011;4772;52.382;9.752;2022-08-21T07:35:17;7.32;;;2.60;;
9467;SDS011;4772;52.382;9.752;2022-08-21T07:37:43;7.95;;;2.63;;
9467;SDS011;4772;52.382;9.752;2022-08-21T07:40:09;4.15;;;2.35;;
9467;SDS011;4772;52.382;9.752;2022-08-21T07:42:39;6.10;;;2.70;;
9467;SDS011;4772;52.382;9.752;2022-08-21T07:45:06;4.80;;;2.42;;
9467;SDS011;4772;52.382;9.752;2022-08-21T07:47:32;3.38;;;2.50;;
9467;SDS011;4772;52.382;9.752;2022-08-21T07:49:58;5.22;;;2.35;;
9467;SDS011;4772;52.382;9.752;2022-08-21T07:52:24;6.70;;;2.20;;
9467;SDS011;4772;52.382;9.752;2022-08-21T07:54:50;6.53;;;2.40;;
9467;SDS011;4772;52.382;9.752;2022-08-21T07:57:16;4.32;;;2.20;;
9467;SDS011;4772;52.382;9.752;2022-08-21T07:59:42;4.45;;;2.13;;
9467;SDS011;4772;52.382;9.752;2022-08-21T08:02:08;5.95;;;2.60;;
9467;SDS011;4772;52.382;9.752;2022-08-21T08:04:34;6.43;;;2.72;;
9467;SDS011;4772;52.382;9.752;2022-08-21T08:07:00;6.13;;;2.20;;
9467;SDS011;4772;52.382;9.752;2022-08-21T08:09:26;4.85;;;2.45;;
9467;SDS011;4772;52.382;9.752;2022-08-21T08:11:52;6.85;;;2.50;;
9467;SDS011;4772;52.382;9.752;2022-08-21T08:14:18;4.97;;;2.20;;
9467;SDS011;4772;52.382;9.752;2022-08-21T08:16:44;5.28;;;2.20;;
9467;SDS011;4772;52.382;9.752;2022-08-21T08:19:10;6.63;;;2.20;;
9467;SDS011;4772;52.382;9.752;2022-08-21T08:21:36;4.65;;;2.08;;
9467;SDS011;4772;52.382;9.752;2022-08-21T08:24:03;8.70;;;2.60;;
9467;SDS011;4772;52.382;9.752;2022-08-21T08:26:29;3.80;;;2.10;;
9467;SDS011;4772;52.382;9.752;2022-08-21T08:28:56;4.13;;;2.00;;
9467;SDS011;4772;52.382;9.752;2022-08-21T08:31:22;5.43;;;2.10;;
9467;SDS011;4772;52.382;9.752;2022-08-21T08:33:48;5.30;;;2.60;;
9467;SDS011;4772;52.382;9.752;2022-08-21T08:36:15;3.97;;;2.00;;
9467;SDS011;4772;52.382;9.752;2022-08-21T08:38:42;4.75;;;2.10;;
9467;SDS011;4772;52.382;9.752;2022-08-21T08:41:15;5.88;;;2.40;;
9467;SDS011;4772;52.382;9.752;2022-08-21T08:43:44;4.53;;;2.45;;
9467;SDS011;4772;52.382;9.752;2022-08-21T08:46:15;5.55;;;2.47;;
9467;SDS011;4772;52.382;9.752;2022-08-21T08:51:14;6.93;;;2.20;;
9467;SDS011;4772;52.382;9.752;2022-08-21T08:53:46;4.38;;;2.20;;
9467;SDS011;4772;52.382;9.752;2022-08-21T08:56:12;5.78;;;2.47;;
9467;SDS011;4772;52.382;9.752;2022-08-21T08:58:39;5.15;;;2.15;;
9467;SDS011;4772;52.382;9.752;2022-08-21T09:01:08;5.70;;;2.42;;
9467;SDS011;4772;52.382;9.752;2022-08-21T09:03:37;4.75;;;2.40;;
9467;SDS011;4772;52.382;9.752;2022-08-21T09:08:50;6.50;;;2.30;;
9467;SDS011;4772;52.382;9.752;2022-08-21T09:11:27;5.93;;;2.50;;
9467;SDS011;4772;52.382;9.752;2022-08-21T09:13:56;8.13;;;2.58;;
9467;SDS011;4772;52.382;9.752;2022-08-21T09:21:35;5.35;;;2.20;;
9467;SDS011;4772;52.382;9.752;2022-08-21T09:26:52;5.30;;;2.42;;
9467;SDS011;4772;52.382;9.752;2022-08-21T09:29:21;6.03;;;2.30;;
9467;SDS011;4772;52.382;9.752;2022-08-21T09:31:47;7.60;;;2.50;;
9467;SDS011;4772;52.382;9.752;2022-08-21T09:34:23;5.82;;;2.25;;
9467;SDS011;4772;52.382;9.752;2022-08-21T09:36:50;5.65;;;2.38;;
9467;SDS011;4772;52.382;9.752;2022-08-21T09:39:29;7.50;;;2.55;;
9467;SDS011;4772;52.382;9.752;2022-08-21T09:42:00;4.93;;;2.40;;
9467;SDS011;4772;52.382;9.752;2022-08-21T09:44:28;4.75;;;2.28;;
9467;SDS011;4772;52.382;9.752;2022-08-21T09:46:55;4.78;;;2.47;;
9467;SDS011;4772;52.382;9.752;2022-08-21T09:49:31;6.28;;;2.63;;
9467;SDS011;4772;52.382;9.752;2022-08-21T09:51:58;3.78;;;2.47;;
9467;SDS011;4772;52.382;9.752;2022-08-21T09:54:34;6.22;;;2.67;;
9467;SDS011;4772;52.382;9.752;2022-08-21T09:59:53;5.55;;;2.42;;
9467;SDS011;4772;52.382;9.752;2022-08-21T10:04:50;5.47;;;2.70;;
9467;SDS011;4772;52.382;9.752;2022-08-21T10:07:19;5.88;;;2.70;;
9467;SDS011;4772;52.382;9.752;2022-08-21T10:09:45;6.50;;;2.40;;
9467;SDS011;4772;52.382;9.752;2022-08-21T10:19:52;4.47;;;2.30;;
9467;SDS011;4772;52.382;9.752;2022-08-21T10:22:24;6.13;;;2.78;;
9467;SDS011;4772;52.382;9.752;2022-08-21T10:25:00;4.82;;;2.30;;
9467;SDS011;4772;52.382;9.752;2022-08-21T10:30:02;5.97;;;2.25;;
9467;SDS011;4772;52.382;9.752;2022-08-21T10:35:42;7.95;;;2.60;;
9467;SDS011;4772;52.382;9.752;2022-08-21T10:45:30;4.25;;;2.30;;
9467;SDS011;4772;52.382;9.752;2022-08-21T10:48:02;5.78;;;2.50;;
9467;SDS011;4772;52.382;9.752;2022-08-21T10:50:30;4.22;;;2.30;;
9467;SDS011;4772;52.382;9.752;2022-08-21T10:57:59;3.70;;;1.98;;
9467;SDS011;4772;52.382;9.752;2022-08-21T11:00:33;3.60;;;2.00;;
9467;SDS011;4772;52.382;9.752;2022-08-21T11:05:41;3.05;;;1.92;;
9467;SDS011;4772;52.382;9.752;2022-08-21T11:08:12;4.93;;;2.03;;
9467;SDS011;4772;52.382;9.752;2022-08-21T11:10:44;3.55;;;1.83;;
9467;SDS011;4772;52.382;9.752;2022-08-21T11:13:13;3.83;;;2.03;;
9467;SDS011;4772;52.382;9.752;2022-08-21T11:15:54;3.25;;;1.92;;
9467;SDS011;4772;52.382;9.752;2022-08-21T11:18:24;3.78;;;2.17;;
9467;SDS011;4772;52.382;9.752;2022-08-21T11:21:00;3.75;;;2.10;;
9467;SDS011;4772;52.382;9.752;2022-08-21T11:23:34;6.13;;;2.20;;
9467;SDS011;4772;52.382;9.752;2022-08-21T11:26:04;2.90;;;1.80;;
9467;SDS011;4772;52.382;9.752;2022-08-21T11:28:34;3.90;;;2.10;;
9467;SDS011;4772;52.382;9.752;2022-08-21T11:33:33;5.05;;;2.05;;
9467;SDS011;4772;52.382;9.752;2022-08-21T11:36:20;3.50;;;2.00;;
9467;SDS011;4772;52.382;9.752;2022-08-21T11:38:55;4.03;;;2.05;;
9467;SDS011;4772;52.382;9.752;2022-08-21T11:41:30;4.70;;;2.00;;
9467;SDS011;4772;52.382;9.752;2022-08-21T11:44:02;5.55;;;2.00;;
9467;SDS011;4772;52.382;9.752;2022-08-21T11:51:34;4.57;;;2.30;;
9467;SDS011;4772;52.382;9.752;2022-08-21T11:54:15;3.00;;;1.92;;
9467;SDS011;4772;52.382;9.752;2022-08-21T11:56:44;2.95;;;1.83;;
9467;SDS011;4772;52.382;9.752;2022-08-21T11:59:14;4.97;;;2.10;;
9467;SDS011;4772;52.382;9.752;2022-08-21T12:01:45;3.03;;;1.67;;
9467;SDS011;4772;52.382;9.752;2022-08-21T12:04:22;2.88;;;2.17;;
9467;SDS011;4772;52.382;9.752;2022-08-21T12:06:50;5.80;;;2.50;;
9467;SDS011;4772;52.382;9.752;2022-08-21T12:09:35;3.45;;;1.83;;
9467;SDS011;4772;52.382;9.752;2022-08-21T12:17:06;2.90;;;1.73;;
9467;SDS011;4772;52.382;9.752;2022-08-21T12:19:33;5.63;;;2.40;;
9467;SDS011;4772;52.382;9.752;2022-08-21T12:24:33;4.55;;;1.90;;
9467;SDS011;4772;52.382;9.752;2022-08-21T12:27:13;4.95;;;2.10;;
9467;SDS011;4772;52.382;9.752;2022-08-21T12:29:43;3.22;;;2.00;;
9467;SDS011;4772;52.382;9.752;2022-08-21T12:32:23;4.75;;;2.30;;
9467;SDS011;4772;52.382;9.752;2022-08-21T12:35:36;5.15;;;2.35;;
9467;SDS011;4772;52.382;9.752;2022-08-21T12:37:40;4.65;;;2.22;;
9467;SDS011;4772;52.382;9.752;2022-08-21T12:40:11;2.40;;;1.73;;
9467;SDS011;4772;52.382;9.752;2022-08-21T12:42:38;3.78;;;1.73;;
9467;SDS011;4772;52.382;9.752;2022-08-21T12:47:55;2.72;;;1.75;;
9467;SDS011;4772;52.382;9.752;2022-08-21T12:50:35;5.93;;;2.20;;
9467;SDS011;4772;52.382;9.752;2022-08-21T12:53:04;2.55;;;1.85;;
9467;SDS011;4772;52.382;9.752;2022-08-21T12:55:32;4.07;;;1.90;;
9467;SDS011;4772;52.382;9.752;2022-08-21T12:57:58;3.47;;;1.90;;
9467;SDS011;4772;52.382;9.752;2022-08-21T13:00:26;4.18;;;2.10;;
9467;SDS011;4772;52.382;9.752;2022-08-21T13:02:53;4.50;;;1.98;;
9467;SDS011;4772;52.382;9.752;2022-08-21T13:05:30;3.60;;;1.80;;
9467;SDS011;4772;52.382;9.752;2022-08-21T13:07:57;2.90;;;1.90;;
9467;SDS011;4772;52.382;9.752;2022-08-21T13:10:27;2.55;;;1.63;;
9467;SDS011;4772;52.382;9.752;2022-08-21T13:12:55;3.97;;;1.90;;
9467;SDS011;4772;52.382;9.752;2022-08-21T13:15:24;4.07;;;1.90;;
9467;SDS011;4772;52.382;9.752;2022-08-21T13:17:51;3.38;;;1.70;;
9467;SDS011;4772;52.382;9.752;2022-08-21T13:20:24;4.53;;;2.03;;
9467;SDS011;4772;52.382;9.752;2022-08-21T13:22:50;4.43;;;2.00;;
9467;SDS011;4772;52.382;9.752;2022-08-21T13:25:18;4.20;;;1.90;;
9467;SDS011;4772;52.382;9.752;2022-08-21T13:27:45;3.53;;;1.80;;
9467;SDS011;4772;52.382;9.752;2022-08-21T13:30:22;3.47;;;1.90;;
9467;SDS011;4772;52.382;9.752;2022-08-21T13:32:49;3.50;;;2.13;;
9467;SDS011;4772;52.382;9.752;2022-08-21T13:37:42;3.65;;;1.80;;
9467;SDS011;4772;52.382;9.752;2022-08-21T13:40:10;4.28;;;1.77;;
9467;SDS011;4772;52.382;9.752;2022-08-21T13:42:39;2.28;;;1.73;;
9467;SDS011;4772;52.382;9.752;2022-08-21T13:45:10;4.50;;;2.13;;
9467;SDS011;4772;52.382;9.752;2022-08-21T13:47:36;3.63;;;2.10;;
9467;SDS011;4772;52.382;9.752;2022-08-21T13:50:03;3.35;;;1.90;;
9467;SDS011;4772;52.382;9.752;2022-08-21T13:52:29;3.67;;;2.03;;
9467;SDS011;4772;52.382;9.752;2022-08-21T13:55:16;2.30;;;1.70;;
9467;SDS011;4772;52.382;9.752;2022-08-21T13:57:41;2.83;;;1.70;;
9467;SDS011;4772;52.382;9.752;2022-08-21T14:02:41;4.05;;;2.03;;
9467;SDS011;4772;52.382;9.752;2022-08-21T14:05:10;4.60;;;2.13;;
9467;SDS011;4772;52.382;9.752;2022-08-21T14:07:40;3.50;;;2.10;;
9467;SDS011;4772;52.382;9.752;2022-08-21T14:10:13;4.10;;;1.90;;
9467;SDS011;4772;52.382;9.752;2022-08-21T14:12:42;5.30;;;2.08;;
9467;SDS011;4772;52.382;9.752;2022-08-21T14:15:09;3.05;;;1.75;;
9467;SDS011;4772;52.382;9.752;2022-08-21T14:17:36;1.90;;;1.70;;
9467;SDS011;4772;52.382;9.752;2022-08-21T14:20:03;3.67;;;2.05;;
9467;SDS011;4772;52.382;9.752;2022-08-21T14:25:00;3.35;;;1.95;;
9467;SDS011;4772;52.382;9.752;2022-08-21T14:27:27;4.00;;;2.00;;
9467;SDS011;4772;52.382;9.752;2022-08-21T14:29:57;3.97;;;2.15;;
9467;SDS011;4772;52.382;9.752;2022-08-21T14:32:24;5.00;;;2.25;;
9467;SDS011;4772;52.382;9.752;2022-08-21T14:34:54;3.10;;;2.03;;
9467;SDS011;4772;52.382;9.752;2022-08-21T14:37:21;3.13;;;2.20;;
9467;SDS011;4772;52.382;9.752;2022-08-21T14:39:47;3.38;;;2.00;;
9467;SDS011;4772;52.382;9.752;2022-08-21T14:42:13;4.53;;;2.28;;
9467;SDS011;4772;52.382;9.752;2022-08-21T14:44:39;7.07;;;2.65;;
9467;SDS011;4772;52.382;9.752;2022-08-21T14:47:05;8.23;;;2.75;;
9467;SDS011;4772;52.382;9.752;2022-08-21T14:49:31;3.40;;;2.42;;
9467;SDS011;4772;52.382;9.752;2022-08-21T14:51:57;4.22;;;2.35;;
9467;SDS011;4772;52.382;9.752;2022-08-21T14:54:27;4.68;;;2.40;;
9467;SDS011;4772;52.382;9.752;2022-08-21T14:56:53;6.53;;;2.45;;
9467;SDS011;4772;52.382;9.752;2022-08-21T14:59:20;3.58;;;2.20;;
9467;SDS011;4772;52.382;9.752;2022-08-21T15:01:46;5.50;;;2.88;;
9467;SDS011;4772;52.382;9.752;2022-08-21T15:04:12;2.70;;;2.38;;
9467;SDS011;4772;52.382;9.752;2022-08-21T15:06:39;3.55;;;2.00;;
9467;SDS011;4772;52.382;9.752;2022-08-21T15:09:05;5.85;;;2.55;;
9467;SDS011;4772;52.382;9.752;2022-08-21T15:11:31;4.13;;;2.53;;
9467;SDS011;4772;52.382;9.752;2022-08-21T15:13:58;4.18;;;2.63;;
9467;SDS011;4772;52.382;9.752;2022-08-21T15:16:26;3.40;;;2.05;;
9467;SDS011;4772;52.382;9.752;2022-08-21T15:18:52;3.50;;;2.40;;
9467;SDS011;4772;52.382;9.752;2022-08-21T15:21:18;4.05;;;2.47;;
9467;SDS011;4772;52.382;9.752;2022-08-21T15:23:44;2.45;;;2.22;;
9467;SDS011;4772;52.382;9.752;2022-08-21T15:26:11;3.30;;;2.42;;
9467;SDS011;4772;52.382;9.752;2022-08-21T15:28:37;3.25;;;2.35;;
9467;SDS011;4772;52.382;9.752;2022-08-21T15:31:03;9.05;;;3.15;;
9467;SDS011;4772;52.382;9.752;2022-08-21T15:33:30;5.47;;;2.65;;
9467;SDS011;4772;52.382;9.752;2022-08-21T15:35:56;3.67;;;2.50;;
9467;SDS011;4772;52.382;9.752;2022-08-21T15:38:22;3.92;;;2.70;;
9467;SDS011;4772;52.382;9.752;2022-08-21T15:40:48;3.47;;;2.40;;
9467;SDS011;4772;52.382;9.752;2022-08-21T15:43:18;3.70;;;2.40;;
9467;SDS011;4772;52.382;9.752;2022-08-21T15:45:47;2.42;;;2.20;;
9467;SDS011;4772;52.382;9.752;2022-08-21T15:48:13;5.15;;;2.40;;
9467;SDS011;4772;52.382;9.752;2022-08-21T15:50:39;3.28;;;2.10;;
9467;SDS011;4772;52.382;9.752;2022-08-21T15:53:05;3.58;;;2.42;;
9467;SDS011;4772;52.382;9.752;2022-08-21T15:55:32;3.17;;;2.13;;
9467;SDS011;4772;52.382;9.752;2022-08-21T15:57:59;3.70;;;2.30;;
9467;SDS011;4772;52.382;9.752;2022-08-21T16:00:25;5.88;;;2.80;;
9467;SDS011;4772;52.382;9.752;2022-08-21T16:02:53;4.80;;;2.50;;
9467;SDS011;4772;52.382;9.752;2022-08-21T16:05:20;4.25;;;2.47;;
9467;SDS011;4772;52.382;9.752;2022-08-21T16:07:47;3.47;;;2.50;;
9467;SDS011;4772;52.382;9.752;2022-08-21T16:10:15;5.07;;;2.05;;
9467;SDS011;4772;52.382;9.752;2022-08-21T16:12:42;4.03;;;2.10;;
9467;SDS011;4772;52.382;9.752;2022-08-21T16:15:09;5.13;;;2.53;;
9467;SDS011;4772;52.382;9.752;2022-08-21T16:17:36;3.65;;;2.63;;
9467;SDS011;4772;52.382;9.752;2022-08-21T16:20:53;5.30;;;2.50;;
9467;SDS011;4772;52.382;9.752;2022-08-21T16:23:19;4.50;;;2.50;;
9467;SDS011;4772;52.382;9.752;2022-08-21T16:25:45;3.95;;;2.50;;
9467;SDS011;4772;52.382;9.752;2022-08-21T16:28:13;4.10;;;2.53;;
9467;SDS011;4772;52.382;9.752;2022-08-21T16:30:39;5.60;;;2.30;;
9467;SDS011;4772;52.382;9.752;2022-08-21T16:33:06;7.15;;;2.60;;